sensor_id;sensor_type;location;lat;lon;timestamp;P1;durP1;ratioP1;P2;durP2;ratioP2
20772;SDS011;10546;50.674;4.616;2024-03-07T06:40:10;147.70;;;40.40;;
20772;SDS011;10546;50.674;4.616;2024-03-07T06:42:39;174.93;;;38.20;;
20772;SDS011;10546;50.674;4.616;2024-03-07T06:45:06;157.93;;;40.43;;
20772;SDS011;10546;50.674;4.616;2024-03-07T06:47:35;141.67;;;39.70;;
20772;SDS011;10546;50.674;4.616;2024-03-07T06:50:17;170.67;;;37.10;;
20772;SDS011;10546;50.674;4.616;2024-03-07T06:53:03;184.83;;;37.30;;
20772;SDS011;10546;50.674;4.616;2024-03-07T06:55:46;253.47;;;42.60;;
20772;SDS011;10546;50.674;4.616;2024-03-07T06:58:14;189.53;;;39.47;;
20772;SDS011;10546;50.674;4.616;2024-03-07T07:00:41;168.97;;;36.93;;
20772;SDS011;10546;50.674;4.616;2024-03-07T07:03:10;196.17;;;39.53;;
20772;SDS011;10546;50.674;4.616;2024-03-07T07:05:40;199.60;;;40.33;;
20772;SDS011;10546;50.674;4.616;2024-03-07T07:08:07;125.83;;;29.53;;
20772;SDS011;10546;50.674;4.616;2024-03-07T07:10:34;164.20;;;40.97;;
20772;SDS011;10546;50.674;4.616;2024-03-07T07:13:07;177.13;;;39.30;;
20772;SDS011;10546;50.674;4.616;2024-03-07T07:15:35;182.60;;;35.50;;
20772;SDS011;10546;50.674;4.616;2024-03-07T07:18:08;173.70;;;36.00;;
20772;SDS011;10546;50.674;4.616;2024-03-07T07:20:43;139.90;;;37.07;;
20772;SDS011;10546;50.674;4.616;2024-03-07T07:23:14;173.67;;;38.07;;
20772;SDS011;10546;50.674;4.616;2024-03-07T07:25:41;136.23;;;35.17;;
20772;SDS011;10546;50.674;4.616;2024-03-07T07:28:08;108.20;;;32.30;;
20772;SDS011;10546;50.674;4.616;2024-03-07T07:30:36;84.80;;;26.53;;
20772;SDS011;10546;50.674;4.616;2024-03-07T07:33:05;139.43;;;34.30;;
20772;SDS011;10546;50.674;4.616;2024-03-07T07:35:32;138.13;;;39.63;;
20772;SDS011;10546;50.674;4.616;2024-03-07T07:38:10;114.00;;;36.63;;
20772;SDS011;10546;50.674;4.616;2024-03-07T07:40:38;76.00;;;26.50;;
20772;SDS011;10546;50.674;4.616;2024-03-07T07:43:06;132.87;;;38.37;;
20772;SDS011;10546;50.674;4.616;2024-03-07T07:45:33;131.00;;;34.40;;
20772;SDS011;10546;50.674;4.616;2024-03-07T07:48:00;101.43;;;32.60;;
20772;SDS011;10546;50.674;4.616;2024-03-07T07:50:27;151.80;;;41.47;;
20772;SDS011;10546;50.674;4.616;2024-03-07T07:52:56;145.13;;;42.53;;
20772;SDS011;10546;50.674;4.616;2024-03-07T07:55:25;137.73;;;37.97;;
20772;SDS011;10546;50.674;4.616;2024-03-07T07:57:59;144.00;;;43.40;;
20772;SDS011;10546;50.674;4.616;2024-03-07T08:00:30;142.67;;;41.70;;
20772;SDS011;10546;50.674;4.616;2024-03-07T08:03:01;127.83;;;35.63;;
20772;SDS011;10546;50.674;4.616;2024-03-07T08:05:36;128.50;;;41.03;;
20772;SDS011;10546;50.674;4.616;2024-03-07T08:08:06;127.40;;;37.30;;
20772;SDS011;10546;50.674;4.616;2024-03-07T08:10:38;127.67;;;40.37;;
20772;SDS011;10546;50.674;4.616;2024-03-07T08:13:12;121.03;;;38.77;;
20772;SDS011;10546;50.674;4.616;2024-03-07T08:15:41;116.63;;;37.23;;
20772;SDS011;10546;50.674;4.616;2024-03-07T08:18:06;137.67;;;41.87;;
20772;SDS011;10546;50.674;4.616;2024-03-07T08:20:37;105.13;;;35.27;;
20772;SDS011;10546;50.674;4.616;2024-03-07T08:23:03;124.60;;;39.53;;
20772;SDS011;10546;50.674;4.616;2024-03-07T08:25:31;110.43;;;36.90;;
20772;SDS011;10546;50.674;4.616;2024-03-07T08:27:57;101.80;;;37.33;;
20772;SDS011;10546;50.674;4.616;2024-03-07T08:30:24;112.47;;;38.50;;
20772;SDS011;10546;50.674;4.616;2024-03-07T08:32:52;117.10;;;38.83;;
20772;SDS011;10546;50.674;4.616;2024-03-07T08:35:19;100.73;;;35.90;;
20772;SDS011;10546;50.674;4.616;2024-03-07T08:37:45;99.43;;;34.37;;
20772;SDS011;10546;50.674;4.616;2024-03-07T08:40:18;86.03;;;28.90;;
20772;SDS011;10546;50.674;4.616;2024-03-07T08:42:48;103.83;;;34.57;;
20772;SDS011;10546;50.674;4.616;2024-03-07T08:45:16;109.07;;;36.23;;
20772;SDS011;10546;50.674;4.616;2024-03-07T08:47:49;109.80;;;38.03;;
20772;SDS011;10546;50.674;4.616;2024-03-07T08:50:17;107.73;;;38.07;;
20772;SDS011;10546;50.674;4.616;2024-03-07T08:52:44;105.23;;;36.73;;
20772;SDS011;10546;50.674;4.616;2024-03-07T08:55:18;96.90;;;35.50;;
20772;SDS011;10546;50.674;4.616;2024-03-07T08:57:53;91.73;;;32.97;;
20772;SDS011;10546;50.674;4.616;2024-03-07T09:00:20;94.10;;;33.60;;
20772;SDS011;10546;50.674;4.616;2024-03-07T09:02:54;96.10;;;35.10;;
20772;SDS011;10546;50.674;4.616;2024-03-07T09:05:24;92.37;;;33.27;;
20772;SDS011;10546;50.674;4.616;2024-03-07T09:07:58;86.03;;;31.97;;
20772;SDS011;10546;50.674;4.616;2024-03-07T09:10:26;92.30;;;31.63;;
20772;SDS011;10546;50.674;4.616;2024-03-07T09:13:01;78.60;;;28.40;;
20772;SDS011;10546;50.674;4.616;2024-03-07T09:15:34;85.23;;;29.77;;
20772;SDS011;10546;50.674;4.616;2024-03-07T09:18:03;69.73;;;25.70;;
20772;SDS011;10546;50.674;4.616;2024-03-07T09:20:31;78.33;;;27.77;;
20772;SDS011;10546;50.674;4.616;2024-03-07T09:22:58;93.43;;;35.57;;
20772;SDS011;10546;50.674;4.616;2024-03-07T09:25:25;80.87;;;30.87;;
20772;SDS011;10546;50.674;4.616;2024-03-07T09:27:52;74.77;;;26.87;;
20772;SDS011;10546;50.674;4.616;2024-03-07T09:30:20;90.27;;;33.13;;
20772;SDS011;10546;50.674;4.616;2024-03-07T09:35:51;79.03;;;31.80;;
20772;SDS011;10546;50.674;4.616;2024-03-07T09:38:18;99.63;;;35.00;;
20772;SDS011;10546;50.674;4.616;2024-03-07T09:40:45;85.33;;;32.20;;
20772;SDS011;10546;50.674;4.616;2024-03-07T09:43:12;73.47;;;27.50;;
20772;SDS011;10546;50.674;4.616;2024-03-07T09:45:38;69.87;;;27.80;;
20772;SDS011;10546;50.674;4.616;2024-03-07T09:48:06;76.73;;;30.47;;
20772;SDS011;10546;50.674;4.616;2024-03-07T09:50:40;74.53;;;31.03;;
20772;SDS011;10546;50.674;4.616;2024-03-07T09:53:17;74.87;;;31.40;;
20772;SDS011;10546;50.674;4.616;2024-03-07T09:55:57;78.50;;;31.83;;
20772;SDS011;10546;50.674;4.616;2024-03-07T09:58:39;76.93;;;30.87;;
20772;SDS011;10546;50.674;4.616;2024-03-07T10:01:28;78.20;;;31.13;;
20772;SDS011;10546;50.674;4.616;2024-03-07T10:04:01;74.40;;;29.43;;
20772;SDS011;10546;50.674;4.616;2024-03-07T10:06:36;68.33;;;30.63;;
20772;SDS011;10546;50.674;4.616;2024-03-07T10:09:10;67.67;;;27.67;;
20772;SDS011;10546;50.674;4.616;2024-03-07T10:11:42;65.97;;;27.23;;
20772;SDS011;10546;50.674;4.616;2024-03-07T10:14:18;72.50;;;30.13;;
20772;SDS011;10546;50.674;4.616;2024-03-07T10:16:48;73.30;;;31.37;;
20772;SDS011;10546;50.674;4.616;2024-03-07T10:19:17;67.80;;;29.47;;
20772;SDS011;10546;50.674;4.616;2024-03-07T10:21:48;72.20;;;30.90;;
20772;SDS011;10546;50.674;4.616;2024-03-07T10:24:14;71.20;;;30.80;;
20772;SDS011;10546;50.674;4.616;2024-03-07T10:26:54;67.23;;;27.67;;
20772;SDS011;10546;50.674;4.616;2024-03-07T10:29:26;67.07;;;28.17;;
20772;SDS011;10546;50.674;4.616;2024-03-07T10:31:57;60.67;;;22.47;;
20772;SDS011;10546;50.674;4.616;2024-03-07T10:34:31;66.77;;;29.10;;
20772;SDS011;10546;50.674;4.616;2024-03-07T10:37:01;61.17;;;27.50;;
20772;SDS011;10546;50.674;4.616;2024-03-07T10:39:30;68.00;;;29.60;;
20772;SDS011;10546;50.674;4.616;2024-03-07T10:41:57;64.47;;;28.20;;
20772;SDS011;10546;50.674;4.616;2024-03-07T10:44:33;64.73;;;29.33;;
20772;SDS011;10546;50.674;4.616;2024-03-07T10:47:07;62.35;;;25.42;;
20772;SDS011;10546;50.674;4.616;2024-03-07T10:49:43;64.80;;;28.75;;
20772;SDS011;10546;50.674;4.616;2024-03-07T10:52:43;60.97;;;26.77;;
20772;SDS011;10546;50.674;4.616;2024-03-07T10:55:40;65.68;;;29.30;;
20772;SDS011;10546;50.674;4.616;2024-03-07T10:58:36;57.22;;;27.90;;
20772;SDS011;10546;50.674;4.616;2024-03-07T11:01:45;58.90;;;27.83;;
20772;SDS011;10546;50.674;4.616;2024-03-07T11:04:33;59.60;;;27.55;;
20772;SDS011;10546;50.674;4.616;2024-03-07T11:07:18;59.22;;;27.92;;
20772;SDS011;10546;50.674;4.616;2024-03-07T11:09:52;60.90;;;27.48;;
20772;SDS011;10546;50.674;4.616;2024-03-07T11:12:24;55.55;;;28.27;;
20772;SDS011;10546;50.674;4.616;2024-03-07T11:15:21;55.78;;;26.27;;
20772;SDS011;10546;50.674;4.616;2024-03-07T11:18:11;53.05;;;27.05;;
20772;SDS011;10546;50.674;4.616;2024-03-07T11:20:38;53.40;;;27.48;;
20772;SDS011;10546;50.674;4.616;2024-03-07T11:23:27;52.35;;;26.38;;
20772;SDS011;10546;50.674;4.616;2024-03-07T11:26:14;51.40;;;25.02;;
20772;SDS011;10546;50.674;4.616;2024-03-07T11:29:02;56.28;;;27.83;;
20772;SDS011;10546;50.674;4.616;2024-03-07T11:32:21;42.45;;;20.50;;
20772;SDS011;10546;50.674;4.616;2024-03-07T11:34:55;50.55;;;25.02;;
20772;SDS011;10546;50.674;4.616;2024-03-07T11:40:58;46.03;;;24.90;;
20772;SDS011;10546;50.674;4.616;2024-03-07T11:43:11;52.33;;;25.58;;
20772;SDS011;10546;50.674;4.616;2024-03-07T11:45:40;54.03;;;25.05;;
20772;SDS011;10546;50.674;4.616;2024-03-07T11:48:24;47.30;;;23.17;;
20772;SDS011;10546;50.674;4.616;2024-03-07T11:50:59;51.85;;;23.98;;
20772;SDS011;10546;50.674;4.616;2024-03-07T11:53:27;46.00;;;20.92;;
20772;SDS011;10546;50.674;4.616;2024-03-07T11:55:57;48.10;;;23.37;;
20772;SDS011;10546;50.674;4.616;2024-03-07T11:58:41;41.87;;;20.83;;
20772;SDS011;10546;50.674;4.616;2024-03-07T12:01:23;43.87;;;22.57;;
20772;SDS011;10546;50.674;4.616;2024-03-07T12:03:55;45.83;;;20.87;;
20772;SDS011;10546;50.674;4.616;2024-03-07T12:06:32;44.53;;;22.47;;
20772;SDS011;10546;50.674;4.616;2024-03-07T12:09:06;35.47;;;16.43;;
20772;SDS011;10546;50.674;4.616;2024-03-07T12:11:47;49.17;;;23.20;;
20772;SDS011;10546;50.674;4.616;2024-03-07T12:14:20;40.60;;;21.57;;
20772;SDS011;10546;50.674;4.616;2024-03-07T12:16:47;32.13;;;15.63;;
20772;SDS011;10546;50.674;4.616;2024-03-07T12:19:27;42.53;;;18.87;;
20772;SDS011;10546;50.674;4.616;2024-03-07T12:22:25;38.50;;;18.80;;
20772;SDS011;10546;50.674;4.616;2024-03-07T12:25:01;43.17;;;19.77;;
20772;SDS011;10546;50.674;4.616;2024-03-07T12:31:00;34.83;;;17.40;;
20772;SDS011;10546;50.674;4.616;2024-03-07T12:34:10;32.83;;;17.97;;
20772;SDS011;10546;50.674;4.616;2024-03-07T12:36:58;42.40;;;20.77;;
20772;SDS011;10546;50.674;4.616;2024-03-07T12:39:27;43.30;;;22.47;;
20772;SDS011;10546;50.674;4.616;2024-03-07T12:42:01;38.17;;;19.10;;
20772;SDS011;10546;50.674;4.616;2024-03-07T12:44:50;38.80;;;18.63;;
20772;SDS011;10546;50.674;4.616;2024-03-07T12:47:17;40.90;;;21.43;;
20772;SDS011;10546;50.674;4.616;2024-03-07T12:49:43;42.43;;;21.23;;
20772;SDS011;10546;50.674;4.616;2024-03-07T12:52:10;44.60;;;23.17;;
20772;SDS011;10546;50.674;4.616;2024-03-07T12:54:41;45.07;;;21.23;;
20772;SDS011;10546;50.674;4.616;2024-03-07T12:57:08;35.73;;;17.93;;
20772;SDS011;10546;50.674;4.616;2024-03-07T12:59:41;46.60;;;21.90;;
20772;SDS011;10546;50.674;4.616;2024-03-07T13:02:07;44.47;;;21.80;;
20772;SDS011;10546;50.674;4.616;2024-03-07T13:04:33;41.00;;;20.07;;
20772;SDS011;10546;50.674;4.616;2024-03-07T13:07:03;38.13;;;18.67;;
20772;SDS011;10546;50.674;4.616;2024-03-07T13:09:49;39.90;;;19.80;;
20772;SDS011;10546;50.674;4.616;2024-03-07T13:12:15;35.50;;;18.67;;
20772;SDS011;10546;50.674;4.616;2024-03-07T13:14:44;34.97;;;18.03;;
20772;SDS011;10546;50.674;4.616;2024-03-07T13:17:13;41.80;;;19.90;;
20772;SDS011;10546;50.674;4.616;2024-03-07T13:19:45;37.93;;;19.10;;
20772;SDS011;10546;50.674;4.616;2024-03-07T13:22:14;33.27;;;16.07;;
20772;SDS011;10546;50.674;4.616;2024-03-07T13:24:51;35.30;;;16.83;;
20772;SDS011;10546;50.674;4.616;2024-03-07T13:27:17;31.87;;;16.57;;
20772;SDS011;10546;50.674;4.616;2024-03-07T13:30:01;31.30;;;16.47;;
20772;SDS011;10546;50.674;4.616;2024-03-07T13:32:35;33.27;;;17.60;;
20772;SDS011;10546;50.674;4.616;2024-03-07T13:35:02;27.60;;;15.47;;
20772;SDS011;10546;50.674;4.616;2024-03-07T13:37:36;32.57;;;16.90;;
20772;SDS011;10546;50.674;4.616;2024-03-07T13:40:10;30.37;;;15.63;;
20772;SDS011;10546;50.674;4.616;2024-03-07T13:42:49;29.10;;;14.67;;
20772;SDS011;10546;50.674;4.616;2024-03-07T13:45:29;33.50;;;17.07;;
20772;SDS011;10546;50.674;4.616;2024-03-07T13:48:07;33.03;;;17.03;;
20772;SDS011;10546;50.674;4.616;2024-03-07T13:50:44;36.17;;;17.97;;
20772;SDS011;10546;50.674;4.616;2024-03-07T13:53:11;44.90;;;20.43;;
20772;SDS011;10546;50.674;4.616;2024-03-07T14:16:21;28.37;;;15.60;;
20772;SDS011;10546;50.674;4.616;2024-03-07T14:25:40;26.97;;;13.27;;
20772;SDS011;10546;50.674;4.616;2024-03-07T14:31:06;27.63;;;14.93;;
20772;SDS011;10546;50.674;4.616;2024-03-07T14:36:44;27.73;;;11.70;;
20772;SDS011;10546;50.674;4.616;2024-03-07T14:39:18;32.13;;;16.63;;
20772;SDS011;10546;50.674;4.616;2024-03-07T14:42:01;33.60;;;14.83;;
20772;SDS011;10546;50.674;4.616;2024-03-07T14:44:35;33.27;;;16.17;;
20772;SDS011;10546;50.674;4.616;2024-03-07T14:47:08;30.07;;;16.00;;
20772;SDS011;10546;50.674;4.616;2024-03-07T14:49:38;29.37;;;15.23;;
20772;SDS011;10546;50.674;4.616;2024-03-07T14:52:05;34.30;;;18.03;;
20772;SDS011;10546;50.674;4.616;2024-03-07T14:54:40;29.60;;;16.23;;
20772;SDS011;10546;50.674;4.616;2024-03-07T14:57:08;35.67;;;16.53;;
20772;SDS011;10546;50.674;4.616;2024-03-07T14:59:36;34.87;;;17.97;;
20772;SDS011;10546;50.674;4.616;2024-03-07T15:02:22;38.07;;;17.97;;
20772;SDS011;10546;50.674;4.616;2024-03-07T15:08:08;34.80;;;17.97;;
20772;SDS011;10546;50.674;4.616;2024-03-07T15:10:42;37.03;;;18.07;;
20772;SDS011;10546;50.674;4.616;2024-03-07T15:13:47;31.87;;;17.73;;
20772;SDS011;10546;50.674;4.616;2024-03-07T15:16:16;33.40;;;17.17;;
20772;SDS011;10546;50.674;4.616;2024-03-07T15:18:51;31.30;;;16.43;;
20772;SDS011;10546;50.674;4.616;2024-03-07T15:21:30;32.17;;;15.83;;
20772;SDS011;10546;50.674;4.616;2024-03-07T15:24:07;29.17;;;13.53;;
20772;SDS011;10546;50.674;4.616;2024-03-07T15:26:36;35.03;;;17.57;;
20772;SDS011;10546;50.674;4.616;2024-03-07T15:29:05;30.37;;;14.67;;
20772;SDS011;10546;50.674;4.616;2024-03-07T15:31:34;31.70;;;16.67;;
20772;SDS011;10546;50.674;4.616;2024-03-07T15:34:00;33.00;;;14.77;;
20772;SDS011;10546;50.674;4.616;2024-03-07T15:36:32;37.07;;;17.80;;
20772;SDS011;10546;50.674;4.616;2024-03-07T15:39:05;38.17;;;17.47;;
20772;SDS011;10546;50.674;4.616;2024-03-07T15:41:45;30.37;;;17.43;;
20772;SDS011;10546;50.674;4.616;2024-03-07T15:44:22;33.10;;;16.90;;
20772;SDS011;10546;50.674;4.616;2024-03-07T15:46:52;33.27;;;15.50;;
20772;SDS011;10546;50.674;4.616;2024-03-07T15:49:20;33.10;;;16.53;;
20772;SDS011;10546;50.674;4.616;2024-03-07T15:52:00;38.17;;;16.00;;
20772;SDS011;10546;50.674;4.616;2024-03-07T15:54:31;30.87;;;15.23;;
20772;SDS011;10546;50.674;4.616;2024-03-07T15:57:02;29.07;;;14.77;;
20772;SDS011;10546;50.674;4.616;2024-03-07T15:59:29;29.03;;;15.90;;
20772;SDS011;10546;50.674;4.616;2024-03-07T16:01:55;33.10;;;14.07;;
20772;SDS011;10546;50.674;4.616;2024-03-07T16:04:21;35.93;;;15.90;;
20772;SDS011;10546;50.674;4.616;2024-03-07T16:06:48;32.03;;;15.23;;
20772;SDS011;10546;50.674;4.616;2024-03-07T16:09:23;34.90;;;15.43;;
20772;SDS011;10546;50.674;4.616;2024-03-07T16:11:52;28.63;;;13.43;;
20772;SDS011;10546;50.674;4.616;2024-03-07T16:14:18;32.83;;;15.30;;
20772;SDS011;10546;50.674;4.616;2024-03-07T16:16:46;32.13;;;16.10;;
20772;SDS011;10546;50.674;4.616;2024-03-07T16:19:13;35.33;;;15.33;;
20772;SDS011;10546;50.674;4.616;2024-03-07T16:21:44;30.90;;;15.13;;
20772;SDS011;10546;50.674;4.616;2024-03-07T16:24:19;29.40;;;14.83;;
20772;SDS011;10546;50.674;4.616;2024-03-07T16:26:57;26.47;;;13.87;;
20772;SDS011;10546;50.674;4.616;2024-03-07T16:29:23;35.13;;;17.13;;
20772;SDS011;10546;50.674;4.616;2024-03-07T16:31:54;29.57;;;15.00;;
20772;SDS011;10546;50.674;4.616;2024-03-07T16:34:25;31.23;;;14.43;;
20772;SDS011;10546;50.674;4.616;2024-03-07T16:36:57;32.60;;;15.47;;
20772;SDS011;10546;50.674;4.616;2024-03-07T16:39:29;30.47;;;16.00;;
20772;SDS011;10546;50.674;4.616;2024-03-07T16:42:09;34.40;;;14.20;;
20772;SDS011;10546;50.674;4.616;2024-03-07T16:44:58;30.73;;;15.33;;
20772;SDS011;10546;50.674;4.616;2024-03-07T16:47:29;27.97;;;15.17;;
20772;SDS011;10546;50.674;4.616;2024-03-07T16:49:57;25.13;;;13.33;;
20772;SDS011;10546;50.674;4.616;2024-03-07T16:52:29;28.43;;;13.83;;
20772;SDS011;10546;50.674;4.616;2024-03-07T16:55:01;30.90;;;13.90;;
20772;SDS011;10546;50.674;4.616;2024-03-07T16:57:38;27.60;;;13.93;;
20772;SDS011;10546;50.674;4.616;2024-03-07T17:00:09;29.43;;;15.30;;
20772;SDS011;10546;50.674;4.616;2024-03-07T17:03:02;26.93;;;13.97;;
20772;SDS011;10546;50.674;4.616;2024-03-07T17:05:43;22.90;;;10.93;;
20772;SDS011;10546;50.674;4.616;2024-03-07T17:08:12;30.67;;;15.40;;
20772;SDS011;10546;50.674;4.616;2024-03-07T17:10:41;29.10;;;14.57;;
20772;SDS011;10546;50.674;4.616;2024-03-07T17:13:10;29.07;;;15.27;;
20772;SDS011;10546;50.674;4.616;2024-03-07T17:15:39;27.23;;;14.80;;
20772;SDS011;10546;50.674;4.616;2024-03-07T17:18:10;29.77;;;12.47;;
20772;SDS011;10546;50.674;4.616;2024-03-07T17:20:47;21.87;;;12.03;;
20772;SDS011;10546;50.674;4.616;2024-03-07T17:23:27;25.10;;;12.93;;
20772;SDS011;10546;50.674;4.616;2024-03-07T17:26:02;22.77;;;12.80;;
20772;SDS011;10546;50.674;4.616;2024-03-07T17:28:32;30.97;;;14.70;;
20772;SDS011;10546;50.674;4.616;2024-03-07T17:30:58;22.50;;;11.97;;
20772;SDS011;10546;50.674;4.616;2024-03-07T17:33:25;28.60;;;11.97;;
20772;SDS011;10546;50.674;4.616;2024-03-07T17:35:53;26.63;;;13.93;;
20772;SDS011;10546;50.674;4.616;2024-03-07T17:38:32;28.50;;;12.50;;
20772;SDS011;10546;50.674;4.616;2024-03-07T17:40:58;24.97;;;11.50;;
20772;SDS011;10546;50.674;4.616;2024-03-07T17:43:24;30.80;;;13.97;;
20772;SDS011;10546;50.674;4.616;2024-03-07T17:45:54;25.77;;;12.73;;
20772;SDS011;10546;50.674;4.616;2024-03-07T17:48:24;25.53;;;12.10;;
20772;SDS011;10546;50.674;4.616;2024-03-07T17:50:58;17.07;;;8.80;;
20772;SDS011;10546;50.674;4.616;2024-03-07T17:53:30;30.93;;;13.57;;
20772;SDS011;10546;50.674;4.616;2024-03-07T17:56:05;25.80;;;13.70;;
20772;SDS011;10546;50.674;4.616;2024-03-07T17:58:34;32.30;;;13.77;;
20772;SDS011;10546;50.674;4.616;2024-03-07T18:01:03;25.60;;;12.20;;
20772;SDS011;10546;50.674;4.616;2024-03-07T18:03:32;28.47;;;13.87;;
20772;SDS011;10546;50.674;4.616;2024-03-07T18:05:59;26.97;;;13.30;;
20772;SDS011;10546;50.674;4.616;2024-03-07T18:08:27;26.03;;;13.13;;
20772;SDS011;10546;50.674;4.616;2024-03-07T18:10:59;18.73;;;8.80;;
20772;SDS011;10546;50.674;4.616;2024-03-07T18:13:37;25.90;;;13.60;;
20772;SDS011;10546;50.674;4.616;2024-03-07T18:16:07;26.40;;;12.83;;
20772;SDS011;10546;50.674;4.616;2024-03-07T18:18:35;25.40;;;13.03;;
20772;SDS011;10546;50.674;4.616;2024-03-07T18:21:05;24.57;;;12.10;;
20772;SDS011;10546;50.674;4.616;2024-03-07T18:23:34;22.13;;;12.07;;
20772;SDS011;10546;50.674;4.616;2024-03-07T18:26:02;26.27;;;13.67;;
20772;SDS011;10546;50.674;4.616;2024-03-07T18:28:37;27.63;;;12.73;;
20772;SDS011;10546;50.674;4.616;2024-03-07T18:31:04;25.77;;;13.30;;
20772;SDS011;10546;50.674;4.616;2024-03-07T18:33:39;26.70;;;12.87;;
20772;SDS011;10546;50.674;4.616;2024-03-07T18:36:09;25.23;;;12.90;;
20772;SDS011;10546;50.674;4.616;2024-03-07T18:38:38;24.83;;;12.80;;
20772;SDS011;10546;50.674;4.616;2024-03-07T18:41:05;26.43;;;13.07;;
20772;SDS011;10546;50.674;4.616;2024-03-07T18:43:32;26.10;;;12.93;;
20772;SDS011;10546;50.674;4.616;2024-03-07T18:46:01;24.60;;;12.93;;
20772;SDS011;10546;50.674;4.616;2024-03-07T18:48:36;25.07;;;13.50;;
20772;SDS011;10546;50.674;4.616;2024-03-07T18:51:06;22.23;;;11.77;;
20772;SDS011;10546;50.674;4.616;2024-03-07T18:53:33;24.27;;;12.30;;
20772;SDS011;10546;50.674;4.616;2024-03-07T18:56:03;23.40;;;12.07;;
20772;SDS011;10546;50.674;4.616;2024-03-07T18:59:02;26.33;;;12.90;;
20772;SDS011;10546;50.674;4.616;2024-03-07T19:01:45;24.10;;;12.37;;
20772;SDS011;10546;50.674;4.616;2024-03-07T19:04:13;24.37;;;11.97;;
20772;SDS011;10546;50.674;4.616;2024-03-07T19:06:54;26.93;;;11.90;;
20772;SDS011;10546;50.674;4.616;2024-03-07T19:09:22;24.67;;;12.60;;
20772;SDS011;10546;50.674;4.616;2024-03-07T19:11:49;26.03;;;13.20;;
20772;SDS011;10546;50.674;4.616;2024-03-07T19:14:17;24.63;;;12.13;;
20772;SDS011;10546;50.674;4.616;2024-03-07T19:16:47;27.40;;;12.53;;
20772;SDS011;10546;50.674;4.616;2024-03-07T19:19:14;22.43;;;12.50;;
20772;SDS011;10546;50.674;4.616;2024-03-07T19:21:40;22.27;;;11.97;;
20772;SDS011;10546;50.674;4.616;2024-03-07T19:24:26;25.20;;;13.27;;
20772;SDS011;10546;50.674;4.616;2024-03-07T19:26:55;25.60;;;12.87;;
20772;SDS011;10546;50.674;4.616;2024-03-07T19:29:21;26.57;;;12.87;;
20772;SDS011;10546;50.674;4.616;2024-03-07T19:31:47;22.80;;;12.97;;
20772;SDS011;10546;50.674;4.616;2024-03-07T19:34:14;24.80;;;13.10;;
20772;SDS011;10546;50.674;4.616;2024-03-07T19:36:50;26.30;;;13.57;;
20772;SDS011;10546;50.674;4.616;2024-03-07T19:39:17;31.50;;;13.47;;
20772;SDS011;10546;50.674;4.616;2024-03-07T19:41:45;28.57;;;12.70;;
20772;SDS011;10546;50.674;4.616;2024-03-07T19:44:14;26.57;;;13.60;;
20772;SDS011;10546;50.674;4.616;2024-03-07T19:46:42;26.87;;;13.63;;
20772;SDS011;10546;50.674;4.616;2024-03-07T19:49:09;23.40;;;12.37;;
20772;SDS011;10546;50.674;4.616;2024-03-07T19:51:35;26.67;;;13.20;;
20772;SDS011;10546;50.674;4.616;2024-03-07T19:54:01;29.50;;;14.70;;
20772;SDS011;10546;50.674;4.616;2024-03-07T19:56:30;27.00;;;13.97;;
20772;SDS011;10546;50.674;4.616;2024-03-07T19:58:57;25.47;;;13.40;;
20772;SDS011;10546;50.674;4.616;2024-03-07T20:01:22;30.43;;;14.33;;
20772;SDS011;10546;50.674;4.616;2024-03-07T20:03:48;30.93;;;15.07;;
20772;SDS011;10546;50.674;4.616;2024-03-07T20:06:14;27.77;;;13.80;;
20772;SDS011;10546;50.674;4.616;2024-03-07T20:08:40;26.10;;;13.50;;
20772;SDS011;10546;50.674;4.616;2024-03-07T20:11:05;27.60;;;14.10;;
20772;SDS011;10546;50.674;4.616;2024-03-07T20:13:33;27.67;;;13.37;;
20772;SDS011;10546;50.674;4.616;2024-03-07T20:16:00;27.63;;;13.80;;
20772;SDS011;10546;50.674;4.616;2024-03-07T20:18:25;28.80;;;13.33;;
20772;SDS011;10546;50.674;4.616;2024-03-07T20:20:51;25.73;;;13.53;;
20772;SDS011;10546;50.674;4.616;2024-03-07T20:23:17;31.83;;;15.10;;
20772;SDS011;10546;50.674;4.616;2024-03-07T20:25:43;28.37;;;14.43;;
20772;SDS011;10546;50.674;4.616;2024-03-07T20:28:09;32.70;;;14.70;;
20772;SDS011;10546;50.674;4.616;2024-03-07T20:30:37;29.53;;;14.43;;
20772;SDS011;10546;50.674;4.616;2024-03-07T20:33:03;27.00;;;14.67;;
20772;SDS011;10546;50.674;4.616;2024-03-07T20:35:30;31.27;;;15.57;;
20772;SDS011;10546;50.674;4.616;2024-03-07T20:37:56;30.40;;;15.07;;
20772;SDS011;10546;50.674;4.616;2024-03-07T20:40:26;29.17;;;15.57;;
20772;SDS011;10546;50.674;4.616;2024-03-07T20:42:52;33.77;;;15.97;;
20772;SDS011;10546;50.674;4.616;2024-03-07T20:45:19;30.77;;;15.37;;
20772;SDS011;10546;50.674;4.616;2024-03-07T20:47:46;33.97;;;16.00;;
20772;SDS011;10546;50.674;4.616;2024-03-07T20:50:16;32.03;;;15.60;;
20772;SDS011;10546;50.674;4.616;2024-03-07T20:52:45;32.00;;;15.70;;
20772;SDS011;10546;50.674;4.616;2024-03-07T20:55:12;34.03;;;16.70;;
20772;SDS011;10546;50.674;4.616;2024-03-07T20:57:44;31.97;;;15.67;;
20772;SDS011;10546;50.674;4.616;2024-03-07T21:00:15;35.27;;;16.53;;
20772;SDS011;10546;50.674;4.616;2024-03-07T21:02:45;35.47;;;16.00;;
20772;SDS011;10546;50.674;4.616;2024-03-07T21:05:16;37.00;;;16.23;;
20772;SDS011;10546;50.674;4.616;2024-03-07T21:07:43;38.97;;;17.40;;
20772;SDS011;10546;50.674;4.616;2024-03-07T21:10:10;34.53;;;16.90;;
20772;SDS011;10546;50.674;4.616;2024-03-07T21:12:38;40.13;;;17.83;;
20772;SDS011;10546;50.674;4.616;2024-03-07T21:15:06;36.63;;;17.23;;
20772;SDS011;10546;50.674;4.616;2024-03-07T21:17:33;34.57;;;17.63;;
20772;SDS011;10546;50.674;4.616;2024-03-07T21:20:02;31.77;;;16.77;;
20772;SDS011;10546;50.674;4.616;2024-03-07T21:22:41;33.53;;;16.37;;
20772;SDS011;10546;50.674;4.616;2024-03-07T21:25:11;32.57;;;16.90;;
20772;SDS011;10546;50.674;4.616;2024-03-07T21:27:44;29.10;;;16.00;;
20772;SDS011;10546;50.674;4.616;2024-03-07T21:30:11;38.97;;;16.27;;
20772;SDS011;10546;50.674;4.616;2024-03-07T21:32:40;33.90;;;15.33;;
20772;SDS011;10546;50.674;4.616;2024-03-07T21:35:08;31.03;;;15.47;;
20772;SDS011;10546;50.674;4.616;2024-03-07T21:37:36;29.77;;;15.30;;
20772;SDS011;10546;50.674;4.616;2024-03-07T21:40:05;34.07;;;15.33;;
20772;SDS011;10546;50.674;4.616;2024-03-07T21:42:35;32.10;;;15.97;;
20772;SDS011;10546;50.674;4.616;2024-03-07T21:45:01;30.63;;;14.90;;
20772;SDS011;10546;50.674;4.616;2024-03-07T21:47:29;28.40;;;14.37;;
20772;SDS011;10546;50.674;4.616;2024-03-07T21:49:59;30.27;;;15.10;;
20772;SDS011;10546;50.674;4.616;2024-03-07T21:52:25;30.93;;;15.30;;
20772;SDS011;10546;50.674;4.616;2024-03-07T21:54:51;35.13;;;15.43;;
20772;SDS011;10546;50.674;4.616;2024-03-07T21:57:17;30.40;;;15.77;;
20772;SDS011;10546;50.674;4.616;2024-03-07T21:59:42;36.40;;;16.30;;
20772;SDS011;10546;50.674;4.616;2024-03-07T22:02:08;30.03;;;15.50;;
20772;SDS011;10546;50.674;4.616;2024-03-07T22:04:37;31.60;;;16.37;;
20772;SDS011;10546;50.674;4.616;2024-03-07T22:07:03;29.77;;;16.77;;
20772;SDS011;10546;50.674;4.616;2024-03-07T22:09:29;37.77;;;15.30;;
20772;SDS011;10546;50.674;4.616;2024-03-07T22:11:55;34.40;;;16.77;;
20772;SDS011;10546;50.674;4.616;2024-03-07T22:14:20;33.40;;;15.23;;